Queen Of Burnaby — VCVV — position and weather

sailwx.info

Track history (hours):
 
Tides and Currents Weather Stations Pressure Air Temp Water Temp Dewpoint Dewpoint Depression Visibility Wind Speed Wind Dir Waves Ship Positions

Queen Of Burnaby

Last reported at 2014-Dec-22 19:16 UTC. Time now 2014-Dec-22 23:24 UTC.
Position N 49°50' W 124°33'.

Length 130 m; draft 3.8 m.

MMSI: 316001246.

Date/timePositionNaut miles runAvg speedWind from/ knotsBaromVisibWave heightAir tempDewpointWater temp
2014-Dec-22 19:16N 49°50' W 124°33'1013.1
2014-Dec-22 18:33N 49°46' W 124°47'8 2.5
2014-Dec-22 15:29N 49°50' W 124°36'1314.6
2014-Dec-22 14:33N 49°45' W 124°55'15 1.5
2014-Dec-22 04:21N 49°50' W 124°33'1215.0
2014-Dec-22 03:33N 49°46' W 124°50'12 3.8
2014-Dec-22 00:28N 49°50' W 124°33'1414.6
2014-Dec-21 23:32N 49°45' W 124°53'13 3.0
2014-Dec-21 19:13N 49°50' W 124°34'1014.6
2014-Dec-21 18:33N 49°46' W 124°48'9 2.9
2014-Dec-21 15:33N 49°50' W 124°36'1 0.1
2014-Dec-21 04:24N 49°50' W 124°34'1214.4
2014-Dec-21 03:33N 49°45' W 124°52'2 1.5
2014-Dec-21 02:23N 49°44' W 124°51'12 6.6
2014-Dec-21 00:33N 49°50' W 124°35'1312.1
2014-Dec-20 23:31N 49°45' W 124°53'1 0.1
2014-Dec-20 06:09N 49°44' W 124°52'611.0
2014-Dec-20 05:33N 49°45' W 124°42'7 5.9
2014-Dec-20 04:22N 49°50' W 124°36'1113.2
2014-Dec-20 03:32N 49°45' W 124°51'1 1.3
2014-Dec-20 02:30N 49°44' W 124°52'13 6.7
2014-Dec-20 00:32N 49°50' W 124°34'1312.9
2014-Dec-19 23:33N 49°45' W 124°52'14 3.3
2014-Dec-19 19:23N 49°50' W 124°32'1011.7
2014-Dec-19 18:33N 49°47' W 124°46'7 2.4
2014-Dec-19 15:32N 49°50' W 124°36'5 0.5
2014-Dec-19 05:26N 49°46' W 124°41'6 6.6
2014-Dec-19 04:29N 49°50' W 124°34'1213.1
2014-Dec-19 03:33N 49°45' W 124°51'1 1.1
2014-Dec-19 02:29N 49°44' W 124°50'10 5.3
2014-Dec-19 00:29N 49°50' W 124°36'1111.8
2014-Dec-18 23:34N 49°45' W 124°51'13 3.2
2014-Dec-18 19:26N 49°50' W 124°32'1011.4
2014-Dec-18 18:33N 49°46' W 124°46'2 1.3
2014-Dec-18 17:06N 49°46' W 124°49'10 6.0
2014-Dec-18 15:31N 49°50' W 124°35'6 0.5
2014-Dec-18 03:33N 49°47' W 124°44'7 0.9
2014-Dec-17 19:32N 49°50' W 124°33'0 0.0
2014-Dec-17 16:20N 49°50' W 124°33'1012.9
2014-Dec-17 15:33N 49°46' W 124°48'10 0.9
2014-Dec-17 04:22N 49°50' W 124°33'1114.1
2014-Dec-17 03:34N 49°46' W 124°50'11 3.7
2014-Dec-17 00:28N 49°50' W 124°33'1312.9
2014-Dec-16 23:29N 49°45' W 124°52'14 3.3
2014-Dec-16 19:24N 49°50' W 124°32'1112.5
2014-Dec-16 18:33N 49°47' W 124°48'1 0.8
2014-Dec-16 17:13N 49°47' W 124°49'8 4.5
2014-Dec-16 15:33N 49°49' W 124°38'3 0.3
2014-Dec-16 04:19N 49°50' W 124°34'1215.2
2014-Dec-16 03:31N 49°45' W 124°51'7 2.1
2014-Dec-16 00:06N 49°48' W 124°41'712.3
2014-Dec-15 23:31N 49°46' W 124°51'13 2.9
2014-Dec-15 19:14N 49°50' W 124°33'913.8
2014-Dec-15 18:33N 49°47' W 124°47'7 2.3
2014-Dec-15 15:33N 49°49' W 124°37'2 0.2
2014-Dec-15 04:21N 49°50' W 124°34'1314.5
2014-Dec-15 03:28N 49°45' W 124°52'13 4.4
2014-Dec-15 00:30N 49°50' W 124°33'1413.1
2014-Dec-14 23:25N 49°45' W 124°54'15 3.7
2014-Dec-14 19:21N 49°50' W 124°32'1012.5
2014-Dec-14 18:33N 49°47' W 124°46'7 2.5
2014-Dec-14 15:33N 49°50' W 124°36'2 0.2
2014-Dec-14 04:22N 49°50' W 124°32'1010.5
2014-Dec-14 03:24N 49°47' W 124°47'7 0.8
2014-Dec-13 19:03N 49°49' W 124°37'814.7
2014-Dec-13 18:29N 49°46' W 124°49'9 3.1
2014-Dec-13 15:32N 49°49' W 124°36'1 0.1
2014-Dec-13 04:21N 49°50' W 124°34'1214.6
2014-Dec-13 03:31N 49°46' W 124°51'9 2.7
2014-Dec-13 00:10N 49°49' W 124°38'914.5
2014-Dec-12 23:33N 49°45' W 124°51'  
Track history (hours):
 
Tides and Currents Weather Stations Pressure Air Temp Water Temp Dewpoint Dewpoint Depression Visibility Wind Speed Wind Dir Waves Ship Positions

Queen Of Burnaby

Last reported at 2014-Dec-22 19:16 UTC. Time now 2014-Dec-22 23:24 UTC.
Position N 49°50' W 124°33'.

Length 130 m; draft 3.8 m.

MMSI: 316001246.

Date/timePositionNaut miles runAvg speedWind from/ knotsBaromVisibWave heightAir tempDewpointWater temp
2014-Dec-22 19:16N 49°50' W 124°33'1013.1
2014-Dec-22 18:33N 49°46' W 124°47'8 2.5
2014-Dec-22 15:29N 49°50' W 124°36'1314.6
2014-Dec-22 14:33N 49°45' W 124°55'15 1.5
2014-Dec-22 04:21N 49°50' W 124°33'1215.0
2014-Dec-22 03:33N 49°46' W 124°50'12 3.8
2014-Dec-22 00:28N 49°50' W 124°33'1414.6
2014-Dec-21 23:32N 49°45' W 124°53'13 3.0
2014-Dec-21 19:13N 49°50' W 124°34'1014.6
2014-Dec-21 18:33N 49°46' W 124°48'9 2.9
2014-Dec-21 15:33N 49°50' W 124°36'1 0.1
2014-Dec-21 04:24N 49°50' W 124°34'1214.4
2014-Dec-21 03:33N 49°45' W 124°52'2 1.5
2014-Dec-21 02:23N 49°44' W 124°51'12 6.6
2014-Dec-21 00:33N 49°50' W 124°35'1312.1
2014-Dec-20 23:31N 49°45' W 124°53'1 0.1
2014-Dec-20 06:09N 49°44' W 124°52'611.0
2014-Dec-20 05:33N 49°45' W 124°42'7 5.9
2014-Dec-20 04:22N 49°50' W 124°36'1113.2
2014-Dec-20 03:32N 49°45' W 124°51'1 1.3
2014-Dec-20 02:30N 49°44' W 124°52'13 6.7
2014-Dec-20 00:32N 49°50' W 124°34'1312.9
2014-Dec-19 23:33N 49°45' W 124°52'14 3.3
2014-Dec-19 19:23N 49°50' W 124°32'1011.7
2014-Dec-19 18:33N 49°47' W 124°46'7 2.4
2014-Dec-19 15:32N 49°50' W 124°36'5 0.5
2014-Dec-19 05:26N 49°46' W 124°41'6 6.6
2014-Dec-19 04:29N 49°50' W 124°34'1213.1
2014-Dec-19 03:33N 49°45' W 124°51'1 1.1
2014-Dec-19 02:29N 49°44' W 124°50'10 5.3
2014-Dec-19 00:29N 49°50' W 124°36'1111.8
2014-Dec-18 23:34N 49°45' W 124°51'13 3.2
2014-Dec-18 19:26N 49°50' W 124°32'1011.4
2014-Dec-18 18:33N 49°46' W 124°46'2 1.3
2014-Dec-18 17:06N 49°46' W 124°49'10 6.0
2014-Dec-18 15:31N 49°50' W 124°35'6 0.5
2014-Dec-18 03:33N 49°47' W 124°44'7 0.9
2014-Dec-17 19:32N 49°50' W 124°33'0 0.0
2014-Dec-17 16:20N 49°50' W 124°33'1012.9
2014-Dec-17 15:33N 49°46' W 124°48'10 0.9
2014-Dec-17 04:22N 49°50' W 124°33'1114.1
2014-Dec-17 03:34N 49°46' W 124°50'11 3.7
2014-Dec-17 00:28N 49°50' W 124°33'1312.9
2014-Dec-16 23:29N 49°45' W 124°52'14 3.3
2014-Dec-16 19:24N 49°50' W 124°32'1112.5
2014-Dec-16 18:33N 49°47' W 124°48'1 0.8
2014-Dec-16 17:13N 49°47' W 124°49'8 4.5
2014-Dec-16 15:33N 49°49' W 124°38'3 0.3
2014-Dec-16 04:19N 49°50' W 124°34'1215.2
2014-Dec-16 03:31N 49°45' W 124°51'7 2.1
2014-Dec-16 00:06N 49°48' W 124°41'712.3
2014-Dec-15 23:31N 49°46' W 124°51'13 2.9
2014-Dec-15 19:14N 49°50' W 124°33'913.8
2014-Dec-15 18:33N 49°47' W 124°47'7 2.3
2014-Dec-15 15:33N 49°49' W 124°37'2 0.2
2014-Dec-15 04:21N 49°50' W 124°34'1314.5
2014-Dec-15 03:28N 49°45' W 124°52'13 4.4
2014-Dec-15 00:30N 49°50' W 124°33'1413.1
2014-Dec-14 23:25N 49°45' W 124°54'15 3.7
2014-Dec-14 19:21N 49°50' W 124°32'1012.5
2014-Dec-14 18:33N 49°47' W 124°46'7 2.5
2014-Dec-14 15:33N 49°50' W 124°36'2 0.2
2014-Dec-14 04:22N 49°50' W 124°32'1010.5
2014-Dec-14 03:24N 49°47' W 124°47'7 0.8
2014-Dec-13 19:03N 49°49' W 124°37'814.7
2014-Dec-13 18:29N 49°46' W 124°49'9 3.1
2014-Dec-13 15:32N 49°49' W 124°36'1 0.1
2014-Dec-13 04:21N 49°50' W 124°34'1214.6
2014-Dec-13 03:31N 49°46' W 124°51'9 2.7
2014-Dec-13 00:10N 49°49' W 124°38'914.5
2014-Dec-12 23:33N 49°45' W 124°51'  

Dump ship's entire track history